Time;durP1;ratioP1;P1;durP2;ratioP2;P2;SDS_P1;SDS_P2;PMS_P1;PMS_P2;Temp;Humidity;BMP_temperature;BMP_pressure;BME280_temperature;BME280_humidity;BME280_pressure;Samples;Min_cycle;Max_cycle;Signal;HPM_P1;HPM_P2
2022/04/06 00:00:10;;;;;;;11.05;4.35;;;10.40;99.90;;;;;;5077657;28;20237;-58
2022/04/06 00:02:38;;;;;;;11.55;4.43;;;10.40;99.90;;;;;;5077464;28;20261;-57
2022/04/06 00:05:04;;;;;;;15.23;4.88;;;10.40;99.90;;;;;;5095976;28;20255;-59
2022/04/06 00:07:30;;;;;;;14.65;4.88;;;10.40;99.90;;;;;;5095827;28;20170;-58
2022/04/06 00:09:56;;;;;;;14.23;4.63;;;10.40;99.90;;;;;;5095680;28;20174;-58
2022/04/06 00:12:21;;;;;;;14.20;4.80;;;10.40;99.90;;;;;;5077595;28;20210;-58
2022/04/06 00:14:47;;;;;;;9.68;4.60;;;10.50;99.90;;;;;;5095379;28;20178;-58
2022/04/06 00:17:14;;;;;;;13.70;4.38;;;10.60;99.90;;;;;;5095445;28;20687;-58
2022/04/06 00:19:40;;;;;;;11.60;4.10;;;10.50;99.90;;;;;;5077318;28;20185;-58
2022/04/06 00:22:05;;;;;;;10.23;4.50;;;10.50;99.90;;;;;;5060856;28;20188;-58
2022/04/06 00:24:32;;;;;;;11.93;4.05;;;10.40;99.90;;;;;;5095187;28;20173;-57
2022/04/06 00:26:57;;;;;;;14.43;4.85;;;10.40;99.90;;;;;;5095360;28;20260;-58
2022/04/06 00:29:23;;;;;;;13.65;4.82;;;10.40;99.90;;;;;;5094463;28;20603;-57
2022/04/06 00:31:49;;;;;;;13.77;4.82;;;10.40;99.90;;;;;;5095043;28;20205;-58
2022/04/06 00:34:15;;;;;;;15.00;4.45;;;10.30;99.90;;;;;;5094835;28;20178;-58
2022/04/06 00:36:41;;;;;;;10.25;3.72;;;10.30;99.90;;;;;;5095244;28;20205;-58
2022/04/06 00:39:07;;;;;;;12.23;3.90;;;10.30;99.90;;;;;;5095071;28;20269;-58
2022/04/06 00:41:32;;;;;;;12.95;4.32;;;10.30;99.90;;;;;;5077040;28;20181;-58
2022/04/06 00:44:18;;;;;;;14.05;4.60;;;10.30;99.90;;;;;;5094924;28;20162;-57
2022/04/06 00:46:45;;;;;;;15.35;4.10;;;10.30;99.90;;;;;;5094860;28;20536;-58
2022/04/06 00:49:14;;;;;;;10.15;4.60;;;10.30;99.90;;;;;;5094755;28;20174;-58
2022/04/06 00:51:42;;;;;;;9.82;3.85;;;10.20;99.90;;;;;;5077195;28;20241;-57
2022/04/06 00:54:08;;;;;;;10.50;3.50;;;10.10;99.90;;;;;;5094758;28;20180;-57
2022/04/06 00:56:35;;;;;;;8.88;3.28;;;10.10;99.90;;;;;;5094588;28;20237;-57
2022/04/06 00:59:01;;;;;;;9.38;3.78;;;10.20;99.90;;;;;;5094559;28;20178;-57
2022/04/06 01:01:27;;;;;;;10.50;3.63;;;10.10;99.90;;;;;;5076431;28;20583;-58
2022/04/06 01:03:53;;;;;;;12.73;4.13;;;10.10;99.90;;;;;;5094666;28;20189;-57
2022/04/06 01:06:20;;;;;;;9.85;3.55;;;10.10;99.90;;;;;;5076447;28;20177;-57
2022/04/06 01:08:47;;;;;;;10.75;3.40;;;10.00;99.90;;;;;;5094369;28;20533;-58
2022/04/06 01:11:12;;;;;;;8.15;3.15;;;10.10;99.90;;;;;;5094402;28;20202;-57
2022/04/06 01:13:39;;;;;;;10.40;3.60;;;10.10;99.90;;;;;;5094299;28;20227;-58
2022/04/06 01:16:05;;;;;;;10.73;3.20;;;10.20;99.90;;;;;;5094364;28;20211;-57
2022/04/06 01:18:32;;;;;;;11.00;3.22;;;10.20;99.90;;;;;;5094224;28;20518;-57
2022/04/06 01:20:58;;;;;;;11.27;3.42;;;10.20;99.90;;;;;;5094171;28;20264;-58
2022/04/06 01:23:24;;;;;;;9.45;3.30;;;10.20;99.90;;;;;;5076456;28;20614;-58
2022/04/06 01:25:50;;;;;;;9.95;4.00;;;10.10;99.90;;;;;;5094073;28;20170;-58
2022/04/06 01:28:16;;;;;;;8.52;3.03;;;10.20;99.90;;;;;;5093927;28;20184;-57
2022/04/06 01:30:42;;;;;;;8.15;3.17;;;10.10;99.90;;;;;;5094075;28;20213;-58
2022/04/06 01:33:08;;;;;;;9.95;3.05;;;10.10;99.90;;;;;;5093949;28;20609;-58
2022/04/06 01:35:38;;;;;;;6.30;2.72;;;10.20;99.90;;;;;;5093994;28;20235;-57
2022/04/06 01:38:05;;;;;;;13.40;3.33;;;10.10;99.90;;;;;;5093964;28;20195;-57
2022/04/06 01:40:30;;;;;;;6.20;2.80;;;10.00;99.90;;;;;;5093826;28;20178;-58
2022/04/06 01:42:56;;;;;;;9.40;3.17;;;10.10;99.90;;;;;;5075665;28;20224;-57
2022/04/06 01:45:22;;;;;;;6.65;2.75;;;10.10;99.90;;;;;;5094019;28;20524;-57
2022/04/06 01:47:48;;;;;;;7.10;2.50;;;10.10;99.90;;;;;;5093900;28;20170;-58
2022/04/06 01:52:58;;;;;;;6.72;2.80;;;10.10;99.90;;;;;;5094057;28;20265;-58
2022/04/06 01:55:24;;;;;;;8.57;2.92;;;10.00;99.90;;;;;;5093552;28;20555;-58
2022/04/06 01:57:49;;;;;;;7.90;2.85;;;10.10;99.90;;;;;;5093734;28;20170;-57
2022/04/06 02:00:17;;;;;;;7.95;3.00;;;10.10;99.90;;;;;;5075574;28;20207;-58
2022/04/06 02:02:49;;;;;;;8.60;3.35;;;10.10;99.90;;;;;;5093656;28;20522;-58
2022/04/06 02:05:16;;;;;;;12.30;3.08;;;10.00;99.90;;;;;;5093747;28;20300;-57
2022/04/06 02:07:48;;;;;;;7.22;2.90;;;10.10;99.90;;;;;;5093444;28;20171;-58
2022/04/06 02:10:14;;;;;;;8.85;3.05;;;10.10;99.90;;;;;;5093791;28;20287;-58
2022/04/06 02:12:41;;;;;;;6.88;2.88;;;10.10;99.90;;;;;;5093558;28;20174;-58
2022/04/06 02:15:11;;;;;;;8.45;2.70;;;10.10;99.90;;;;;;5093532;28;20276;-58
2022/04/06 02:17:39;;;;;;;6.75;2.60;;;10.00;99.90;;;;;;5075643;28;20174;-58
2022/04/06 02:20:06;;;;;;;8.18;2.83;;;10.00;99.90;;;;;;5093308;28;20181;-58
2022/04/06 02:22:31;;;;;;;9.82;2.80;;;10.00;99.90;;;;;;5093066;28;20181;-58
2022/04/06 02:24:57;;;;;;;9.32;3.28;;;10.00;99.90;;;;;;5093431;28;20174;-58
2022/04/06 02:27:23;;;;;;;9.45;3.03;;;10.10;99.90;;;;;;5075257;28;20189;-57
2022/04/06 02:29:48;;;;;;;8.43;3.20;;;10.00;99.90;;;;;;5092225;28;20189;-58
2022/04/06 02:32:14;;;;;;;11.65;4.07;;;10.00;99.90;;;;;;5075205;28;20283;-57
2022/04/06 02:34:40;;;;;;;8.52;3.05;;;10.00;99.90;;;;;;5093335;28;20177;-57
2022/04/06 02:37:07;;;;;;;11.40;4.43;;;10.10;99.90;;;;;;5092900;28;20205;-58
2022/04/06 02:39:33;;;;;;;14.10;4.18;;;10.10;99.90;;;;;;5093260;28;20173;-58
2022/04/06 02:41:59;;;;;;;11.70;4.43;;;10.10;99.90;;;;;;5058450;28;20174;-58
2022/04/06 02:44:24;;;;;;;10.07;4.18;;;10.10;99.90;;;;;;5093071;28;20560;-57
2022/04/06 02:46:50;;;;;;;12.55;4.88;;;10.10;99.90;;;;;;5093367;28;20186;-57
2022/04/06 02:49:16;;;;;;;16.42;4.43;;;10.00;99.90;;;;;;5092994;28;20174;-57
2022/04/06 02:51:42;;;;;;;16.08;4.75;;;10.00;99.90;;;;;;5076009;28;20273;-58
2022/04/06 02:54:07;;;;;;;14.85;5.13;;;10.00;99.90;;;;;;5079123;28;20621;-58
2022/04/06 02:56:33;;;;;;;20.55;5.35;;;10.00;99.90;;;;;;5079160;28;20269;-58
2022/04/06 02:59:01;;;;;;;16.40;5.22;;;10.00;99.90;;;;;;5097163;28;20204;-58
2022/04/06 03:01:26;;;;;;;11.93;4.75;;;10.10;99.90;;;;;;5079160;28;20174;-57
2022/04/06 03:03:52;;;;;;;16.10;5.32;;;10.00;99.90;;;;;;5097197;28;20186;-58
2022/04/06 03:06:18;;;;;;;14.50;5.25;;;10.00;99.90;;;;;;5096957;28;20259;-57
2022/04/06 03:08:44;;;;;;;13.52;5.10;;;10.00;99.90;;;;;;5078967;28;20177;-57
2022/04/06 03:11:10;;;;;;;16.15;5.20;;;10.10;99.90;;;;;;5078568;28;20216;-57
2022/04/06 03:13:35;;;;;;;16.88;5.13;;;10.00;99.90;;;;;;5078826;28;20174;-57
2022/04/06 03:16:01;;;;;;;17.00;4.85;;;10.00;99.90;;;;;;5078432;28;20251;-58
2022/04/06 03:18:27;;;;;;;14.10;4.88;;;10.00;99.90;;;;;;5078601;28;20178;-57
2022/04/06 03:20:53;;;;;;;13.70;4.85;;;10.00;99.90;;;;;;5061655;28;20178;-58
2022/04/06 03:23:19;;;;;;;15.80;4.90;;;10.00;99.90;;;;;;5096391;28;20186;-58
2022/04/06 03:25:45;;;;;;;14.38;4.80;;;10.00;99.90;;;;;;5096575;28;20174;-57
2022/04/06 03:28:11;;;;;;;14.02;4.32;;;10.00;99.90;;;;;;5096105;28;20241;-57
2022/04/06 03:30:37;;;;;;;14.80;5.07;;;10.00;99.90;;;;;;5096177;28;20705;-58
2022/04/06 03:33:03;;;;;;;16.20;4.88;;;9.90;99.90;;;;;;5096554;28;20227;-57
2022/04/06 03:35:29;;;;;;;13.80;5.35;;;9.90;99.90;;;;;;5078010;28;20179;-57
2022/04/06 03:37:55;;;;;;;14.25;4.43;;;9.90;99.90;;;;;;5096352;28;20188;-57
2022/04/06 03:40:21;;;;;;;16.33;5.05;;;10.00;99.90;;;;;;5096307;28;20169;-58
2022/04/06 03:42:46;;;;;;;13.57;4.55;;;10.00;99.90;;;;;;5096340;28;20223;-57
2022/04/06 03:45:12;;;;;;;14.63;4.13;;;10.00;99.90;;;;;;5096110;28;20229;-58
2022/04/06 03:47:40;;;;;;;14.73;4.35;;;9.90;99.90;;;;;;5096049;28;20181;-57
2022/04/06 03:50:07;;;;;;;14.88;3.92;;;10.00;99.90;;;;;;5095860;28;20537;-58
2022/04/06 03:52:33;;;;;;;11.48;3.70;;;9.90;99.90;;;;;;5095955;28;20665;-58
2022/04/06 03:54:59;;;;;;;9.50;3.67;;;9.90;99.90;;;;;;5095927;28;20224;-57
2022/04/06 03:57:25;;;;;;;10.50;3.80;;;9.90;99.90;;;;;;5095926;28;20251;-58
2022/04/06 03:59:51;;;;;;;11.57;3.60;;;9.90;99.90;;;;;;5095785;28;20205;-57
2022/04/06 04:02:17;;;;;;;11.90;3.30;;;9.90;99.90;;;;;;5095540;28;20251;-57
2022/04/06 04:04:43;;;;;;;10.55;3.42;;;9.90;99.90;;;;;;5095026;28;20636;-57
2022/04/06 04:07:08;;;;;;;9.02;3.08;;;9.90;99.90;;;;;;5095878;28;20185;-58
2022/04/06 04:09:35;;;;;;;10.75;3.35;;;9.90;99.90;;;;;;5077881;28;20228;-58
2022/04/06 04:12:02;;;;;;;8.88;2.92;;;10.00;99.90;;;;;;5095569;28;20243;-58
2022/04/06 04:14:29;;;;;;;12.10;3.63;;;10.00;99.90;;;;;;5095582;28;20178;-58
2022/04/06 04:16:55;;;;;;;9.88;2.95;;;10.00;99.90;;;;;;5095522;28;20509;-58
2022/04/06 04:19:21;;;;;;;7.65;2.45;;;9.90;99.90;;;;;;5077427;28;20234;-57
2022/04/06 04:21:46;;;;;;;8.82;3.08;;;10.00;99.90;;;;;;5077346;28;20193;-58
2022/04/06 04:24:12;;;;;;;9.93;2.90;;;10.00;99.90;;;;;;5095624;28;20529;-57
2022/04/06 04:26:38;;;;;;;8.00;2.55;;;10.00;99.90;;;;;;5095262;28;20227;-58
2022/04/06 04:29:05;;;;;;;11.13;2.60;;;10.00;99.90;;;;;;5095229;28;20223;-58
2022/04/06 04:31:30;;;;;;;6.75;2.10;;;9.90;99.90;;;;;;5095155;28;20198;-58
2022/04/06 04:33:57;;;;;;;6.00;1.83;;;9.90;99.90;;;;;;5095418;28;20227;-57
2022/04/06 04:36:23;;;;;;;8.52;2.20;;;9.90;99.90;;;;;;5095266;28;20269;-57
2022/04/06 04:38:49;;;;;;;7.47;1.92;;;9.90;99.90;;;;;;5060439;28;20650;-57
2022/04/06 04:41:14;;;;;;;6.93;2.35;;;9.90;99.90;;;;;;5095080;28;20177;-58
2022/04/06 04:43:41;;;;;;;11.13;2.47;;;9.90;99.90;;;;;;5094994;28;20178;-57
2022/04/06 04:46:07;;;;;;;6.20;2.30;;;9.90;99.90;;;;;;5077000;28;20181;-57
2022/04/06 04:48:33;;;;;;;6.40;2.45;;;9.90;99.90;;;;;;5076578;28;20632;-58
2022/04/06 04:50:59;;;;;;;9.82;2.47;;;9.80;99.90;;;;;;5094967;28;20248;-57
2022/04/06 04:53:25;;;;;;;6.75;2.10;;;9.90;99.90;;;;;;5076663;28;20174;-57
2022/04/06 04:55:53;;;;;;;6.95;1.92;;;9.80;99.90;;;;;;5094511;28;20174;-57
2022/04/06 04:58:19;;;;;;;9.88;2.30;;;9.80;99.90;;;;;;5076893;28;20170;-57
2022/04/06 05:00:46;;;;;;;10.57;2.35;;;9.90;99.90;;;;;;5094442;28;20660;-57
2022/04/06 05:03:12;;;;;;;5.22;1.75;;;9.90;99.90;;;;;;5076383;28;20181;-58
2022/04/06 05:05:40;;;;;;;6.45;2.00;;;10.00;99.90;;;;;;5094518;28;20208;-58
2022/04/06 05:08:06;;;;;;;6.47;1.80;;;9.90;99.90;;;;;;5094272;28;20279;-58
2022/04/06 05:10:32;;;;;;;6.13;1.80;;;9.80;99.90;;;;;;5075323;28;20173;-58
2022/04/06 05:12:58;;;;;;;5.20;1.90;;;9.80;99.90;;;;;;5094435;28;20180;-58
2022/04/06 05:15:23;;;;;;;4.80;1.52;;;9.90;99.90;;;;;;5093868;28;20189;-58
2022/04/06 05:17:49;;;;;;;4.35;1.50;;;9.90;99.90;;;;;;5094646;28;20664;-58
2022/04/06 05:20:15;;;;;;;4.00;2.10;;;9.90;99.90;;;;;;5094268;28;20173;-58
2022/04/06 05:22:41;;;;;;;5.45;1.80;;;9.80;99.90;;;;;;5094655;28;20177;-58
2022/04/06 05:25:07;;;;;;;5.80;2.22;;;9.80;99.90;;;;;;5094157;28;20543;-58
2022/04/06 05:27:50;;;;;;;7.47;2.72;;;9.80;99.90;;;;;;5094030;28;20701;-58
2022/04/06 05:30:17;;;;;;;5.30;2.08;;;9.80;99.90;;;;;;5093435;28;20260;-58
2022/04/06 05:32:44;;;;;;;6.22;2.30;;;9.90;99.90;;;;;;5093368;28;20213;-59
2022/04/06 05:35:11;;;;;;;6.45;2.10;;;9.90;99.90;;;;;;5094064;28;20636;-58
2022/04/06 05:37:42;;;;;;;5.97;2.10;;;9.90;99.90;;;;;;5093949;28;20523;-58
2022/04/06 05:40:09;;;;;;;7.13;2.10;;;9.90;99.90;;;;;;5094039;28;20174;-58
2022/04/06 05:42:35;;;;;;;4.65;1.80;;;9.90;99.90;;;;;;5093653;28;20716;-58
2022/04/06 05:45:02;;;;;;;6.00;2.08;;;9.90;99.90;;;;;;5093937;28;20628;-58
2022/04/06 05:47:28;;;;;;;8.98;2.38;;;9.90;99.90;;;;;;5094115;28;20457;-58
2022/04/06 05:49:54;;;;;;;8.70;2.00;;;9.90;99.90;;;;;;5093856;28;20208;-58
2022/04/06 05:52:20;;;;;;;9.30;2.05;;;10.00;99.90;;;;;;5093545;28;20205;-58
2022/04/06 05:54:46;;;;;;;8.50;2.22;;;10.00;99.90;;;;;;5075509;28;20173;-58
2022/04/06 05:57:11;;;;;;;6.68;1.88;;;10.00;99.90;;;;;;5093524;28;20170;-59
2022/04/06 05:59:37;;;;;;;6.93;2.08;;;10.10;99.90;;;;;;5093515;28;20170;-59
2022/04/06 06:02:05;;;;;;;6.20;2.03;;;10.00;99.90;;;;;;5058722;28;20178;-58
2022/04/06 06:04:33;;;;;;;5.85;1.95;;;10.00;99.90;;;;;;5093444;28;20679;-58
2022/04/06 06:06:58;;;;;;;4.88;2.05;;;10.00;99.90;;;;;;5093473;28;20162;-58
2022/04/06 06:09:24;;;;;;;6.30;2.20;;;10.00;99.90;;;;;;5093381;28;20165;-58
2022/04/06 06:11:50;;;;;;;5.75;1.90;;;10.00;99.90;;;;;;5093416;28;20209;-58
2022/04/06 06:14:15;;;;;;;4.93;1.80;;;10.10;99.90;;;;;;5093566;28;20608;-58
2022/04/06 06:16:41;;;;;;;5.28;1.83;;;10.00;99.90;;;;;;5093475;28;20624;-58
2022/04/06 06:19:07;;;;;;;5.90;2.13;;;10.10;99.90;;;;;;5093490;28;20174;-58
2022/04/06 06:21:32;;;;;;;7.88;2.15;;;10.10;99.90;;;;;;5093305;28;20174;-58
2022/04/06 06:24:05;;;;;;;6.10;2.30;;;10.10;99.90;;;;;;5058624;28;20172;-58
2022/04/06 06:26:31;;;;;;;7.47;2.45;;;10.10;99.90;;;;;;5092489;28;20174;-58
2022/04/06 06:28:57;;;;;;;5.20;1.80;;;10.00;99.90;;;;;;5093439;28;20181;-58
2022/04/06 06:31:23;;;;;;;5.80;2.13;;;9.90;99.90;;;;;;5093137;28;20209;-58
2022/04/06 06:33:49;;;;;;;4.07;1.73;;;10.00;99.90;;;;;;5092995;28;20185;-58
2022/04/06 06:36:15;;;;;;;4.63;1.85;;;10.00;99.90;;;;;;5093141;28;20268;-58
2022/04/06 06:38:41;;;;;;;5.22;1.52;;;10.10;99.90;;;;;;5093001;28;20182;-58
2022/04/06 06:41:07;;;;;;;7.57;1.52;;;10.10;99.90;;;;;;5075289;28;20227;-58
2022/04/06 06:43:32;;;;;;;4.00;1.80;;;10.10;99.90;;;;;;5093414;28;20632;-58
2022/04/06 06:45:58;;;;;;;7.20;1.90;;;10.10;99.90;;;;;;5093196;28;20633;-58
2022/04/06 06:48:23;;;;;;;5.95;2.05;;;10.20;99.90;;;;;;5093071;28;20181;-58
2022/04/06 06:50:49;;;;;;;7.03;2.10;;;10.20;99.90;;;;;;5092907;28;20210;-58
2022/04/06 06:53:15;;;;;;;7.28;2.10;;;10.20;99.90;;;;;;5092870;28;20181;-58
2022/04/06 06:55:40;;;;;;;6.18;2.20;;;10.20;99.90;;;;;;5092809;28;20310;-58
2022/04/06 06:58:07;;;;;;;7.85;2.05;;;10.20;99.90;;;;;;5093041;28;20207;-58
2022/04/06 07:00:33;;;;;;;8.52;2.15;;;10.20;99.90;;;;;;5093074;28;20174;-58
2022/04/06 07:02:58;;;;;;;6.07;2.13;;;10.30;99.90;;;;;;5092896;28;20174;-58
2022/04/06 07:05:24;;;;;;;7.78;2.20;;;10.30;99.90;;;;;;5092880;28;20743;-58
2022/04/06 07:07:52;;;;;;;7.38;2.00;;;10.30;99.90;;;;;;5092787;28;20659;-58
2022/04/06 07:10:18;;;;;;;5.40;1.83;;;10.30;99.90;;;;;;5074827;28;20227;-58
2022/04/06 07:12:44;;;;;;;4.05;1.83;;;10.50;99.90;;;;;;5092868;28;20271;-58
2022/04/06 07:15:10;;;;;;;5.85;1.85;;;10.50;99.90;;;;;;5092887;28;20166;-58
2022/04/06 07:17:36;;;;;;;6.05;2.28;;;10.60;99.90;;;;;;5092808;28;20243;-58
2022/04/06 07:20:02;;;;;;;8.80;2.13;;;10.70;99.90;;;;;;5092703;28;20185;-58
2022/04/06 07:22:28;;;;;;;7.72;2.50;;;10.90;99.90;;;;;;5092783;28;20624;-58
2022/04/06 07:24:53;;;;;;;7.00;2.30;;;11.00;99.90;;;;;;5074842;28;20265;-58
2022/04/06 07:27:19;;;;;;;7.80;2.05;;;11.00;99.90;;;;;;5092781;28;20181;-59
2022/04/06 07:29:44;;;;;;;7.32;2.22;;;11.00;99.90;;;;;;5093040;28;20174;-58
2022/04/06 07:32:10;;;;;;;6.10;2.22;;;11.20;99.90;;;;;;5092622;28;20210;-59
2022/04/06 07:34:35;;;;;;;6.43;1.77;;;11.20;99.90;;;;;;5092649;28;20174;-58
2022/04/06 07:37:01;;;;;;;7.35;2.38;;;11.20;99.90;;;;;;5092611;28;20178;-58
2022/04/06 07:39:27;;;;;;;6.38;2.03;;;11.20;99.90;;;;;;5096514;28;20640;-58
2022/04/06 07:41:56;;;;;;;6.88;1.70;;;11.30;99.90;;;;;;5096318;28;20178;-58
2022/04/06 07:44:25;;;;;;;7.05;2.10;;;11.20;99.90;;;;;;5096233;28;20213;-58
2022/04/06 07:46:51;;;;;;;6.38;2.00;;;11.20;99.90;;;;;;5096253;28;20241;-58
2022/04/06 07:49:17;;;;;;;8.65;2.47;;;11.10;99.90;;;;;;5096054;28;20266;-58
2022/04/06 07:51:43;;;;;;;4.75;1.90;;;10.90;99.90;;;;;;5095764;28;20767;-58
2022/04/06 07:54:09;;;;;;;5.32;1.90;;;10.70;99.90;;;;;;5096329;28;20197;-58
2022/04/06 07:56:36;;;;;;;4.00;1.80;;;10.70;99.90;;;;;;5096015;28;20174;-58
2022/04/06 07:59:03;;;;;;;7.47;2.03;;;10.80;99.90;;;;;;5095952;28;20530;-58
2022/04/06 08:01:29;;;;;;;4.28;1.98;;;10.90;99.90;;;;;;5095892;28;20209;-58
2022/04/06 08:03:54;;;;;;;5.25;2.13;;;10.80;99.90;;;;;;5095762;28;20297;-59
2022/04/06 08:06:22;;;;;;;8.13;2.53;;;10.80;99.90;;;;;;5095628;28;20672;-58
2022/04/06 08:08:51;;;;;;;5.97;1.85;;;10.80;99.90;;;;;;5095763;28;20182;-58
2022/04/06 08:11:17;;;;;;;7.97;2.28;;;10.80;99.90;;;;;;5095521;28;20595;-59
2022/04/06 08:13:43;;;;;;;9.13;2.47;;;10.80;99.90;;;;;;5077580;28;20173;-58
2022/04/06 08:16:09;;;;;;;7.10;2.70;;;10.90;99.90;;;;;;5095655;28;20259;-58
2022/04/06 08:18:35;;;;;;;5.10;2.00;;;10.90;99.90;;;;;;5095543;28;20652;-58
2022/04/06 08:21:01;;;;;;;4.25;2.40;;;10.80;99.90;;;;;;5095334;28;20174;-58
2022/04/06 08:23:26;;;;;;;6.53;2.30;;;10.90;99.90;;;;;;5095527;28;20177;-58
2022/04/06 08:25:52;;;;;;;8.48;2.20;;;10.80;99.90;;;;;;5095402;28;20166;-58
2022/04/06 08:28:19;;;;;;;6.95;2.40;;;10.80;99.90;;;;;;5095224;28;20637;-58
2022/04/06 08:30:47;;;;;;;8.90;2.47;;;10.70;99.90;;;;;;5095115;28;20267;-58
2022/04/06 08:33:13;;;;;;;8.18;2.50;;;10.70;99.90;;;;;;5095314;28;20178;-58
2022/04/06 08:35:40;;;;;;;6.32;2.28;;;10.80;99.90;;;;;;5095120;28;20174;-58
2022/04/06 08:38:07;;;;;;;6.22;1.90;;;10.80;99.90;;;;;;5094988;28;20621;-58
2022/04/06 08:40:35;;;;;;;7.28;2.42;;;10.80;99.90;;;;;;5095186;28;20170;-58
2022/04/06 08:43:01;;;;;;;5.55;2.05;;;10.90;99.90;;;;;;5094987;28;20215;-58
2022/04/06 08:45:27;;;;;;;4.78;2.10;;;10.90;99.90;;;;;;5095063;28;20692;-58
2022/04/06 08:47:53;;;;;;;7.82;2.30;;;11.00;99.90;;;;;;5076836;28;20186;-58
2022/04/06 08:50:20;;;;;;;5.70;2.65;;;11.10;99.90;;;;;;5094587;28;20170;-58
2022/04/06 08:52:47;;;;;;;7.70;2.63;;;11.20;99.90;;;;;;5094486;28;20615;-59
2022/04/06 08:55:15;;;;;;;5.90;2.30;;;11.30;99.90;;;;;;5094761;28;20269;-58
2022/04/06 08:57:41;;;;;;;7.13;2.10;;;11.30;99.90;;;;;;5094780;28;20181;-58
2022/04/06 09:00:10;;;;;;;4.88;2.33;;;11.30;99.90;;;;;;5094604;28;20202;-58
2022/04/06 09:02:35;;;;;;;5.35;2.20;;;11.30;99.90;;;;;;5094411;28;20166;-58
2022/04/06 09:05:03;;;;;;;7.15;2.13;;;11.20;99.90;;;;;;5094350;28;20201;-59
2022/04/06 09:07:30;;;;;;;4.63;2.17;;;11.20;99.90;;;;;;5094548;28;20170;-59
2022/04/06 09:09:56;;;;;;;7.82;2.38;;;11.30;99.90;;;;;;5094618;28;20169;-58
2022/04/06 09:12:24;;;;;;;5.53;2.00;;;11.40;99.90;;;;;;5059735;28;20270;-59
2022/04/06 09:15:11;;;;;;;4.45;1.98;;;11.40;99.90;;;;;;5094348;28;20746;-58
2022/04/06 09:17:46;;;;;;;6.63;2.53;;;11.40;99.90;;;;;;5094608;28;20194;-58
2022/04/06 09:20:13;;;;;;;6.20;2.35;;;11.50;99.90;;;;;;5094354;28;20217;-58
2022/04/06 09:22:39;;;;;;;6.55;2.47;;;11.40;99.90;;;;;;5094244;28;20192;-58
2022/04/06 09:25:05;;;;;;;6.55;2.45;;;11.40;99.90;;;;;;5094246;28;20177;-59
2022/04/06 09:27:32;;;;;;;4.70;2.00;;;11.40;99.90;;;;;;5094052;28;20170;-58
2022/04/06 09:29:58;;;;;;;6.22;2.30;;;11.50;99.90;;;;;;5093977;28;20228;-58
2022/04/06 09:32:25;;;;;;;4.57;2.25;;;11.50;99.90;;;;;;5093951;28;20213;-58
2022/04/06 09:34:50;;;;;;;6.80;2.72;;;11.50;99.90;;;;;;5075935;28;20185;-58
2022/04/06 09:37:31;;;;;;;5.40;2.22;;;11.40;99.90;;;;;;5094134;28;20174;-58
2022/04/06 09:40:07;;;;;;;8.15;2.65;;;11.30;99.90;;;;;;5094241;28;20705;-58
2022/04/06 09:42:33;;;;;;;4.97;2.38;;;11.30;99.90;;;;;;5076539;28;20636;-58
2022/04/06 09:48:03;;;;;;;8.50;2.22;;;11.20;99.90;;;;;;5094116;28;20735;-59
2022/04/06 09:50:30;;;;;;;9.48;2.85;;;11.30;99.90;;;;;;5093070;28;20186;-58
2022/04/06 09:53:01;;;;;;;8.35;2.45;;;11.30;99.90;;;;;;5093806;28;20247;-58
2022/04/06 09:55:27;;;;;;;4.93;2.33;;;11.30;99.90;;;;;;5093710;28;20178;-58
2022/04/06 09:57:55;;;;;;;5.57;2.38;;;11.40;99.90;;;;;;5093492;28;20217;-58
2022/04/06 10:00:29;;;;;;;4.88;2.33;;;11.40;99.90;;;;;;5093355;28;20174;-58
2022/04/06 10:03:07;;;;;;;6.15;2.13;;;11.40;99.90;;;;;;5093302;28;20178;-59
2022/04/06 10:05:38;;;;;;;6.22;2.30;;;11.30;99.90;;;;;;5093954;28;20180;-59
2022/04/06 10:08:09;;;;;;;5.35;2.25;;;11.30;99.90;;;;;;5093633;28;20667;-59
2022/04/06 10:10:38;;;;;;;6.72;2.20;;;11.40;99.90;;;;;;5093420;28;20540;-58
2022/04/06 10:13:10;;;;;;;5.70;2.50;;;11.40;99.90;;;;;;5093426;28;20174;-58
2022/04/06 10:15:37;;;;;;;5.65;2.17;;;11.60;99.90;;;;;;5093351;28;20170;-58
2022/04/06 10:18:04;;;;;;;6.32;1.98;;;11.70;99.90;;;;;;5075205;28;20178;-59
2022/04/06 10:20:36;;;;;;;5.43;2.20;;;11.70;99.90;;;;;;5093497;28;20174;-58
2022/04/06 10:23:07;;;;;;;7.18;2.40;;;11.80;99.90;;;;;;5093389;28;20205;-58
2022/04/06 10:25:54;;;;;;;4.75;2.10;;;11.80;99.90;;;;;;5093195;28;20166;-58
2022/04/06 10:28:22;;;;;;;7.15;2.05;;;11.70;99.90;;;;;;5093743;28;20205;-58
2022/04/06 10:31:12;;;;;;;4.05;2.00;;;11.70;99.90;;;;;;5093174;28;20190;-58
2022/04/06 10:33:38;;;;;;;4.75;1.77;;;11.80;99.90;;;;;;5092996;28;20170;-58
2022/04/06 10:36:19;;;;;;;4.80;2.00;;;11.80;99.90;;;;;;5093094;28;20243;-58
2022/04/06 10:39:06;;;;;;;7.28;1.90;;;11.80;99.90;;;;;;5093215;28;20170;-58
2022/04/06 10:41:33;;;;;;;8.07;2.45;;;11.90;99.90;;;;;;5093214;28;20170;-58
2022/04/06 10:43:59;;;;;;;4.57;2.08;;;11.80;99.90;;;;;;5093147;28;20202;-58
2022/04/06 10:46:34;;;;;;;4.18;1.92;;;11.80;99.90;;;;;;5074932;28;20239;-58
2022/04/06 10:49:05;;;;;;;6.40;2.22;;;11.80;99.90;;;;;;5074882;28;20184;-58
2022/04/06 10:51:33;;;;;;;6.18;2.10;;;11.60;99.90;;;;;;5093188;28;20280;-58
2022/04/06 10:54:19;;;;;;;3.50;1.90;;;11.60;99.90;;;;;;5093028;28;20185;-58
2022/04/06 10:56:54;;;;;;;5.38;2.13;;;11.60;99.90;;;;;;5075378;28;20189;-58
2022/04/06 10:59:21;;;;;;;4.50;1.75;;;11.60;99.90;;;;;;5092822;28;20648;-58
2022/04/06 11:01:48;;;;;;;6.43;2.28;;;11.60;99.90;;;;;;5074982;28;20177;-58
2022/04/06 11:04:17;;;;;;;4.32;2.13;;;11.70;99.90;;;;;;5092935;28;20217;-58
2022/04/06 11:06:59;;;;;;;7.15;2.50;;;11.70;99.90;;;;;;5092908;28;20182;-58
2022/04/06 11:10:12;;;;;;;4.63;2.33;;;11.60;99.90;;;;;;5092799;28;20177;-58
2022/04/06 11:12:23;;;;;;;7.35;2.03;;;11.50;99.90;;;;;;5082043;28;20221;-58
2022/04/06 11:14:50;;;;;;;6.30;2.50;;;11.70;99.90;;;;;;5096794;28;20174;-58
2022/04/06 11:17:32;;;;;;;3.92;1.90;;;11.60;99.90;;;;;;5096696;28;20182;-58
2022/04/06 11:19:59;;;;;;;7.65;2.40;;;11.60;99.90;;;;;;5096501;28;20182;-58
2022/04/06 11:22:24;;;;;;;4.22;2.10;;;11.60;99.90;;;;;;5096418;28;20186;-58
2022/04/06 11:24:50;;;;;;;4.93;2.05;;;11.70;99.90;;;;;;5096667;28;20265;-58
2022/04/06 11:27:26;;;;;;;5.97;2.60;;;11.70;99.90;;;;;;5078608;28;20202;-59
2022/04/06 11:29:59;;;;;;;4.40;2.17;;;11.70;99.90;;;;;;5096438;28;20182;-58
2022/04/06 11:32:24;;;;;;;4.90;2.10;;;11.80;99.90;;;;;;5096275;28;20218;-58
2022/04/06 11:34:50;;;;;;;4.65;2.33;;;11.80;99.90;;;;;;5096529;28;20544;-59
2022/04/06 11:37:16;;;;;;;4.90;2.22;;;11.80;99.90;;;;;;5096477;28;20249;-59
2022/04/06 11:39:42;;;;;;;3.67;2.22;;;11.80;99.90;;;;;;5096492;28;20269;-59
2022/04/06 11:42:16;;;;;;;4.57;2.00;;;11.80;99.90;;;;;;5096201;28;20202;-59
2022/04/06 11:44:43;;;;;;;5.57;2.40;;;11.90;99.90;;;;;;5096289;28;20170;-58
2022/04/06 11:47:08;;;;;;;5.78;2.45;;;11.90;99.90;;;;;;5095918;28;20559;-58
2022/04/06 11:49:35;;;;;;;5.05;2.47;;;12.00;99.90;;;;;;5096145;28;20178;-58
2022/04/06 11:52:01;;;;;;;4.05;2.10;;;12.00;99.90;;;;;;5096163;28;20194;-58
2022/04/06 11:54:27;;;;;;;3.72;2.00;;;11.90;99.90;;;;;;5096079;28;20185;-58
2022/04/06 11:56:54;;;;;;;5.45;2.08;;;11.90;99.90;;;;;;5077758;28;20205;-59
2022/04/06 11:59:22;;;;;;;3.60;2.13;;;11.80;99.90;;;;;;5095788;28;20197;-58
2022/04/06 12:01:50;;;;;;;3.85;2.30;;;11.70;99.90;;;;;;5095603;28;20178;-58
2022/04/06 12:04:26;;;;;;;6.00;2.40;;;11.70;99.90;;;;;;5095752;28;20189;-58
2022/04/06 12:06:53;;;;;;;3.85;2.20;;;11.70;99.90;;;;;;5095850;28;20173;-58
2022/04/06 12:09:20;;;;;;;2.97;1.77;;;11.70;99.90;;;;;;5095651;28;20257;-58
2022/04/06 12:11:50;;;;;;;3.70;2.00;;;11.70;99.90;;;;;;5095537;28;20729;-58
2022/04/06 12:14:16;;;;;;;3.58;2.20;;;11.70;99.90;;;;;;5095487;28;20166;-58
2022/04/06 12:16:43;;;;;;;3.95;2.22;;;11.60;99.90;;;;;;5095760;28;20645;-58
2022/04/06 12:19:13;;;;;;;4.93;2.35;;;11.60;99.90;;;;;;5095443;28;20181;-58
2022/04/06 12:21:44;;;;;;;2.95;2.05;;;11.60;99.90;;;;;;5095438;28;20186;-58
2022/04/06 12:24:11;;;;;;;4.63;2.53;;;11.50;99.90;;;;;;5094293;28;20188;-58
2022/04/06 12:26:47;;;;;;;2.83;2.03;;;11.50;99.90;;;;;;5095328;28;20166;-58
2022/04/06 12:29:15;;;;;;;4.15;2.10;;;11.60;99.90;;;;;;5095560;28;20590;-59
2022/04/06 12:31:42;;;;;;;3.22;2.30;;;11.60;99.90;;;;;;5094938;28;20660;-58
2022/04/06 12:34:09;;;;;;;3.80;2.20;;;11.60;99.90;;;;;;5095256;28;20186;-58
2022/04/06 12:36:35;;;;;;;2.83;1.90;;;11.70;99.90;;;;;;5095342;28;20178;-58
2022/04/06 12:39:13;;;;;;;2.95;1.70;;;11.80;99.90;;;;;;5076984;28;20189;-58
2022/04/06 12:42:02;;;;;;;4.47;1.92;;;11.80;99.90;;;;;;5095244;28;20302;-58
2022/04/06 12:44:37;;;;;;;2.80;1.85;;;11.70;99.90;;;;;;5095101;28;20174;-58
2022/04/06 12:47:17;;;;;;;2.30;1.80;;;11.80;99.90;;;;;;5095026;28;20170;-58
2022/04/06 12:49:42;;;;;;;3.55;1.77;;;11.80;99.90;;;;;;5095099;28;20177;-58
2022/04/06 12:52:17;;;;;;;5.05;2.20;;;11.80;99.90;;;;;;5094549;28;20556;-58